createdAt,value
2017-04-04T00:00:07.820Z,101985.03
2017-04-04T00:01:06.391Z,101987.70
2017-04-04T00:02:04.964Z,101983.42
2017-04-04T00:03:03.458Z,101982.48
2017-04-04T00:04:01.987Z,101986.30
2017-04-04T00:05:00.532Z,101987.06
2017-04-04T00:05:59.195Z,101978.80
2017-04-04T00:06:57.804Z,101985.34
2017-04-04T00:07:56.411Z,101983.81
2017-04-04T00:08:55.037Z,101982.47
2017-04-04T00:09:53.623Z,101987.75
2017-04-04T00:10:52.144Z,101986.56
2017-04-04T00:11:50.656Z,101976.93
2017-04-04T00:12:49.180Z,101978.61
2017-04-04T00:13:47.799Z,101972.33
2017-04-04T00:14:46.419Z,101969.01
2017-04-04T00:15:44.948Z,101969.05
2017-04-04T00:16:43.468Z,101967.69
2017-04-04T00:17:42.007Z,101974.45
2017-04-04T00:18:40.554Z,101969.21
2017-04-04T00:19:39.068Z,101964.70
2017-04-04T00:20:37.571Z,101967.75
2017-04-04T00:21:36.185Z,101970.70
2017-04-04T00:22:34.767Z,101961.91
2017-04-04T00:23:33.332Z,101966.30
2017-04-04T00:24:31.847Z,101963.75
2017-04-04T00:25:30.511Z,101965.73
2017-04-04T00:26:29.012Z,101969.79
2017-04-04T00:27:27.503Z,101970.17
2017-04-04T00:28:26.058Z,101968.75
2017-04-04T00:29:24.683Z,101962.88
2017-04-04T00:30:23.352Z,101968.25
2017-04-04T00:31:22.001Z,101964.70
2017-04-04T00:32:20.627Z,101960.95
2017-04-04T00:33:19.178Z,101967.27
2017-04-04T00:34:17.706Z,101970.52
2017-04-04T00:35:16.271Z,101972.84
2017-04-04T00:36:14.847Z,101972.11
2017-04-04T00:37:13.523Z,101969.52
2017-04-04T00:38:12.044Z,101966.58
2017-04-04T00:39:10.631Z,101963.94
2017-04-04T00:40:09.220Z,101966.34
2017-04-04T00:41:07.735Z,101960.75
2017-04-04T00:42:06.247Z,101956.17
2017-04-04T00:43:04.778Z,101962.70
2017-04-04T00:44:03.356Z,101962.65
2017-04-04T00:45:02.022Z,101961.44
2017-04-04T00:46:00.579Z,101957.66
2017-04-04T00:46:59.115Z,101961.33
2017-04-04T00:47:57.608Z,101956.21
2017-04-04T00:48:56.126Z,101958.87
2017-04-04T00:49:54.778Z,101953.56
2017-04-04T00:50:53.273Z,101952.50
2017-04-04T00:51:51.779Z,101960.97
2017-04-04T00:52:50.300Z,101954.74
2017-04-04T00:53:48.851Z,101954.11
2017-04-04T00:54:47.471Z,101957.22
2017-04-04T00:55:46.080Z,101951.21
2017-04-04T00:56:44.759Z,101952.41
2017-04-04T00:57:43.443Z,101959.57
2017-04-04T00:58:42.087Z,101949.59
2017-04-04T00:59:40.570Z,101952.02
2017-04-04T01:00:39.163Z,101956.16
2017-04-04T01:01:37.704Z,101950.91
2017-04-04T01:02:36.183Z,101951.70
2017-04-04T01:03:34.723Z,101950.57
2017-04-04T01:04:33.264Z,101947.81
2017-04-04T01:05:31.760Z,101948.95
2017-04-04T01:06:30.276Z,101954.19
2017-04-04T01:07:28.800Z,101950.09
2017-04-04T01:08:27.345Z,101947.38
2017-04-04T01:09:26.030Z,101944.73
2017-04-04T01:10:24.706Z,101942.98
2017-04-04T01:11:23.278Z,101950.62
2017-04-04T01:12:21.836Z,101950.41
2017-04-04T01:13:20.426Z,101943.86
2017-04-04T01:14:18.914Z,101943.34
2017-04-04T01:15:17.444Z,101946.68
2017-04-04T01:16:15.963Z,101940.02
2017-04-04T01:17:14.531Z,101943.69
2017-04-04T01:18:13.064Z,101940.02
2017-04-04T01:19:11.554Z,101940.94
2017-04-04T01:20:10.088Z,101948.55
2017-04-04T01:21:08.614Z,101941.01
2017-04-04T01:22:07.176Z,101953.36
2017-04-04T01:23:05.683Z,101944.66
2017-04-04T01:24:04.235Z,101939.34
2017-04-04T01:25:02.712Z,101934.53
2017-04-04T01:26:01.254Z,101927.21
2017-04-04T01:26:59.819Z,101934.31
2017-04-04T01:27:58.356Z,101933.09
2017-04-04T01:28:56.871Z,101925.48
2017-04-04T01:29:55.459Z,101927.68
2017-04-04T01:30:53.988Z,101927.37
2017-04-04T01:31:52.563Z,101924.72
2017-04-04T01:32:51.063Z,101930.08
2017-04-04T01:33:49.546Z,101934.33
2017-04-04T01:34:48.087Z,101931.37
2017-04-04T01:35:46.679Z,101939.98
2017-04-04T01:36:45.339Z,101934.82
2017-04-04T01:37:43.955Z,101940.73
2017-04-04T01:38:42.584Z,101936.61
2017-04-04T01:39:41.172Z,101932.16
2017-04-04T01:40:39.835Z,101941.31
2017-04-04T01:41:38.331Z,101938.55
2017-04-04T01:42:36.875Z,101941.73
2017-04-04T01:43:35.546Z,101941.03
2017-04-04T01:44:34.100Z,101939.11
2017-04-04T01:45:32.815Z,101940.92
2017-04-04T01:46:31.318Z,101930.88
2017-04-04T01:47:29.818Z,101932.34
2017-04-04T01:48:28.315Z,101931.98
2017-04-04T01:49:26.803Z,101929.45
2017-04-04T01:50:25.363Z,101924.39
2017-04-04T01:51:23.958Z,101924.34
2017-04-04T01:52:22.470Z,101923.05
2017-04-04T01:53:20.981Z,101925.16
2017-04-04T01:54:19.647Z,101923.78
2017-04-04T01:55:18.135Z,101929.05
2017-04-04T01:56:16.727Z,101922.25
2017-04-04T01:57:15.243Z,101927.40
2017-04-04T01:58:13.767Z,101926.06
2017-04-04T01:59:12.270Z,101924.23
2017-04-04T02:00:10.890Z,101922.50
2017-04-04T02:01:09.435Z,101928.17
2017-04-04T02:02:07.934Z,101935.05
2017-04-04T02:03:06.439Z,101927.00
2017-04-04T02:04:04.991Z,101927.94
2017-04-04T02:05:03.514Z,101926.41
2017-04-04T02:06:02.028Z,101929.10
2017-04-04T02:07:00.588Z,101932.84
2017-04-04T02:07:59.067Z,101927.09
2017-04-04T02:08:57.583Z,101928.75
2017-04-04T02:09:56.143Z,101927.83
2017-04-04T02:10:54.780Z,101930.98
2017-04-04T02:11:53.563Z,101932.32
2017-04-04T02:12:52.155Z,101925.70
2017-04-04T02:13:50.691Z,101928.27
2017-04-04T02:14:49.188Z,101931.09
2017-04-04T02:15:47.682Z,101927.47
2017-04-04T02:16:46.208Z,101921.01
2017-04-04T02:17:44.693Z,101920.89
2017-04-04T02:18:43.255Z,101922.94
2017-04-04T02:19:41.827Z,101922.91
2017-04-04T02:20:40.411Z,101920.40
2017-04-04T02:21:38.900Z,101920.55
2017-04-04T02:22:37.550Z,101923.90
2017-04-04T02:23:36.074Z,101919.27
2017-04-04T02:24:34.569Z,101922.56
2017-04-04T02:25:33.143Z,101915.24
2017-04-04T02:26:31.636Z,101921.76
2017-04-04T02:27:30.119Z,101920.39
2017-04-04T02:28:28.632Z,101919.88
2017-04-04T02:29:27.299Z,101922.00
2017-04-04T02:30:25.999Z,101923.31
2017-04-04T02:31:24.619Z,101916.38
2017-04-04T02:32:23.204Z,101916.59
2017-04-04T02:33:21.787Z,101921.72
2017-04-04T02:34:20.450Z,101921.11
2017-04-04T02:35:19.128Z,101917.00
2017-04-04T02:36:17.640Z,101914.44
2017-04-04T02:37:16.262Z,101915.33
2017-04-04T02:38:14.927Z,101919.27
2017-04-04T02:39:13.455Z,101914.81
2017-04-04T02:40:11.970Z,101918.41
2017-04-04T02:41:10.480Z,101914.53
2017-04-04T02:42:09.043Z,101917.67
2017-04-04T02:43:07.557Z,101912.62
2017-04-04T02:44:06.044Z,101916.62
2017-04-04T02:45:04.629Z,101915.13
2017-04-04T02:46:03.172Z,101909.99
2017-04-04T02:47:01.739Z,101913.32
2017-04-04T02:48:00.255Z,101914.80
2017-04-04T02:48:58.803Z,101916.27
2017-04-04T02:49:57.347Z,101910.63
2017-04-04T02:50:55.922Z,101911.13
2017-04-04T02:51:54.527Z,101909.99
2017-04-04T02:52:53.031Z,101912.55
2017-04-04T02:53:51.536Z,101909.14
2017-04-04T02:54:50.082Z,101912.02
2017-04-04T02:55:48.781Z,101910.28
2017-04-04T02:56:47.355Z,101908.10
2017-04-04T02:57:45.933Z,101907.21
2017-04-04T02:58:44.492Z,101902.73
2017-04-04T02:59:43.002Z,101903.41
2017-04-04T03:00:41.567Z,101904.13
2017-04-04T03:01:40.079Z,101904.66
2017-04-04T03:02:38.575Z,101905.05
2017-04-04T03:03:37.083Z,101902.66
2017-04-04T03:04:35.595Z,101902.15
2017-04-04T03:05:34.256Z,101900.47
2017-04-04T03:06:32.824Z,101899.33
2017-04-04T03:07:31.383Z,101901.05
2017-04-04T03:08:29.901Z,101897.77
2017-04-04T03:09:28.383Z,101901.31
2017-04-04T03:10:26.927Z,101899.88
2017-04-04T03:11:25.475Z,101900.09
2017-04-04T03:12:23.963Z,101894.27
2017-04-04T03:13:22.493Z,101892.71
2017-04-04T03:14:21.063Z,101894.52
2017-04-04T03:15:19.571Z,101892.77
2017-04-04T03:16:18.075Z,101890.61
2017-04-04T03:17:16.568Z,101887.73
2017-04-04T03:18:15.143Z,101889.69
2017-04-04T03:19:13.643Z,101891.13
2017-04-04T03:20:12.140Z,101885.11
2017-04-04T03:21:10.718Z,101886.35
2017-04-04T03:22:09.239Z,101886.42
2017-04-04T03:23:07.881Z,101884.03
2017-04-04T03:24:06.555Z,101884.53
2017-04-04T03:25:05.111Z,101891.27
2017-04-04T03:26:03.635Z,101888.63
2017-04-04T03:27:02.187Z,101882.23
2017-04-04T03:28:00.719Z,101891.30
2017-04-04T03:28:59.231Z,101892.94
2017-04-04T03:29:57.799Z,101887.48
2017-04-04T03:30:56.427Z,101887.61
2017-04-04T03:31:54.940Z,101884.34
2017-04-04T03:32:53.442Z,101889.99
2017-04-04T03:33:52.029Z,101889.62
2017-04-04T03:34:50.609Z,101889.76
2017-04-04T03:35:49.264Z,101883.29
2017-04-04T03:36:47.911Z,101882.83
2017-04-04T03:37:46.411Z,101880.98
2017-04-04T03:38:44.984Z,101880.90
2017-04-04T03:39:43.578Z,101887.11
2017-04-04T03:40:42.210Z,101884.27
2017-04-04T03:41:40.829Z,101883.89
2017-04-04T03:42:39.359Z,101881.55
2017-04-04T03:43:37.919Z,101886.44
2017-04-04T03:44:36.470Z,101884.75
2017-04-04T03:45:34.980Z,101885.99
2017-04-04T03:46:33.467Z,101887.50
2017-04-04T03:47:32.011Z,101889.55
2017-04-04T03:48:30.635Z,101884.91
2017-04-04T03:49:29.268Z,101885.23
2017-04-04T03:50:27.875Z,101885.53
2017-04-04T03:51:26.499Z,101887.46
2017-04-04T03:52:25.203Z,101886.02
2017-04-04T03:53:23.723Z,101883.66
2017-04-04T03:54:22.300Z,101886.02
2017-04-04T03:55:20.900Z,101885.20
2017-04-04T03:56:19.418Z,101879.66
2017-04-04T03:57:17.910Z,101882.81
2017-04-04T03:58:16.400Z,101880.45
2017-04-04T03:59:14.906Z,101881.89
2017-04-04T04:00:13.420Z,101882.50
2017-04-04T04:01:12.010Z,101886.21
2017-04-04T04:02:10.688Z,101885.92
2017-04-04T04:03:09.276Z,101887.32
2017-04-04T04:04:07.922Z,101895.27
2017-04-04T04:05:06.599Z,101893.57
2017-04-04T04:06:05.194Z,101896.72
2017-04-04T04:07:03.843Z,101892.58
2017-04-04T04:08:02.353Z,101898.11
2017-04-04T04:09:00.858Z,101896.98
2017-04-04T04:09:59.367Z,101898.20
2017-04-04T04:10:57.951Z,101895.63
2017-04-04T04:11:56.542Z,101897.47
2017-04-04T04:12:55.040Z,101897.13
2017-04-04T04:13:53.547Z,101898.45
2017-04-04T04:14:52.082Z,101897.31
2017-04-04T04:15:50.610Z,101898.08
2017-04-04T04:16:49.131Z,101899.91
2017-04-04T04:17:47.691Z,101901.15
2017-04-04T04:18:46.327Z,101899.53
2017-04-04T04:19:44.840Z,101897.70
2017-04-04T04:20:43.347Z,101899.53
2017-04-04T04:21:41.927Z,101897.66
2017-04-04T04:22:40.535Z,101897.87
2017-04-04T04:23:39.034Z,101897.69
2017-04-04T04:24:37.582Z,101890.78
2017-04-04T04:25:36.129Z,101891.17
2017-04-04T04:26:35.099Z,101892.91
2017-04-04T04:27:33.615Z,101887.67
2017-04-04T04:28:32.139Z,101890.27
2017-04-04T04:29:30.649Z,101894.15
2017-04-04T04:30:29.445Z,101896.29
2017-04-04T04:31:27.950Z,101896.53
2017-04-04T04:32:26.471Z,101902.09
2017-04-04T04:33:25.274Z,101899.88
2017-04-04T04:34:23.808Z,101901.18
2017-04-04T04:35:22.462Z,101896.48
2017-04-04T04:36:21.054Z,101894.27
2017-04-04T04:37:19.699Z,101898.08
2017-04-04T04:38:18.270Z,101900.02
2017-04-04T04:39:16.779Z,101897.76
2017-04-04T04:40:15.291Z,101900.62
2017-04-04T04:41:13.871Z,101895.78
2017-04-04T04:42:12.372Z,101899.97
2017-04-04T04:43:10.867Z,101907.19
2017-04-04T04:44:09.358Z,101898.48
2017-04-04T04:45:07.867Z,101908.16
2017-04-04T04:46:06.478Z,101906.30
2017-04-04T04:47:05.039Z,101908.85
2017-04-04T04:48:03.663Z,101905.30
2017-04-04T04:49:02.164Z,101910.91
2017-04-04T04:50:00.666Z,101910.61
2017-04-04T04:50:59.207Z,101914.78
2017-04-04T04:51:57.767Z,101913.73
2017-04-04T04:52:56.318Z,101910.86
2017-04-04T04:53:54.859Z,101907.87
2017-04-04T04:54:53.383Z,101916.95
2017-04-04T04:55:51.864Z,101916.86
2017-04-04T04:56:50.355Z,101915.63
2017-04-04T04:57:48.879Z,101914.07
2017-04-04T04:58:47.391Z,101916.75
2017-04-04T04:59:45.895Z,101918.17
2017-04-04T05:00:44.456Z,101915.31
2017-04-04T05:01:43.004Z,101908.44
2017-04-04T05:02:41.507Z,101911.53
2017-04-04T05:03:40.034Z,101910.63
2017-04-04T05:04:38.552Z,101907.52
2017-04-04T05:05:37.480Z,101907.65
2017-04-04T05:06:36.036Z,101911.97
2017-04-04T05:07:35.091Z,101908.69
2017-04-04T05:08:33.632Z,101911.87
2017-04-04T05:09:32.170Z,101915.13
2017-04-04T05:10:30.901Z,101917.20
2017-04-04T05:11:29.486Z,101912.30
2017-04-04T05:12:28.015Z,101913.09
2017-04-04T05:13:26.606Z,101912.41
2017-04-04T05:14:25.104Z,101911.56
2017-04-04T05:15:24.079Z,101913.52
2017-04-04T05:16:22.595Z,101912.45
2017-04-04T05:17:21.159Z,101911.19
2017-04-04T05:18:19.758Z,101914.17
2017-04-04T05:19:18.389Z,101912.84
2017-04-04T05:20:17.254Z,101915.76
2017-04-04T05:21:15.883Z,101920.02
2017-04-04T05:22:14.495Z,101912.69
2017-04-04T05:23:13.275Z,101921.01
2017-04-04T05:24:11.820Z,101922.44
2017-04-04T05:25:10.567Z,101921.00
2017-04-04T05:26:09.206Z,101920.69
2017-04-04T05:27:07.796Z,101919.24
2017-04-04T05:28:06.307Z,101922.84
2017-04-04T05:29:04.800Z,101924.69
2017-04-04T05:30:03.307Z,101925.55
2017-04-04T05:31:01.920Z,101928.61
2017-04-04T05:32:00.593Z,101934.27
2017-04-04T05:32:59.150Z,101934.30
2017-04-04T05:33:57.638Z,101926.84
2017-04-04T05:34:56.159Z,101931.28
2017-04-04T05:35:54.715Z,101927.08
2017-04-04T05:36:53.243Z,101933.09
2017-04-04T05:37:51.797Z,101938.48
2017-04-04T05:38:50.422Z,101932.24
2017-04-04T05:39:48.995Z,101934.97
2017-04-04T05:40:47.667Z,101932.43
2017-04-04T05:41:46.197Z,101928.03
2017-04-04T05:42:44.720Z,101933.20
2017-04-04T05:43:43.322Z,101931.69
2017-04-04T05:44:41.903Z,101933.94
2017-04-04T05:45:40.391Z,101935.49
2017-04-04T05:46:38.894Z,101936.08
2017-04-04T05:47:37.475Z,101932.20
2017-04-04T05:48:36.011Z,101928.41
2017-04-04T05:49:34.522Z,101932.03
2017-04-04T05:50:33.123Z,101925.77
2017-04-04T05:51:31.660Z,101932.39
2017-04-04T05:52:30.189Z,101930.31
2017-04-04T05:53:28.706Z,101931.06
2017-04-04T05:54:27.230Z,101931.57
2017-04-04T05:55:25.772Z,101932.80
2017-04-04T05:56:24.329Z,101936.74
2017-04-04T05:57:22.897Z,101938.02
2017-04-04T05:58:21.495Z,101931.94
2017-04-04T05:59:20.165Z,101932.60
2017-04-04T06:00:18.720Z,101936.46
2017-04-04T06:01:17.415Z,101930.79
2017-04-04T06:02:16.056Z,101933.50
2017-04-04T06:03:14.681Z,101932.93
2017-04-04T06:04:13.231Z,101928.18
2017-04-04T06:05:11.817Z,101930.61
2017-04-04T06:06:10.468Z,101935.19
2017-04-04T06:07:09.096Z,101933.81
2017-04-04T06:08:07.776Z,101931.47
2017-04-04T06:09:06.659Z,101935.10
2017-04-04T06:10:05.193Z,101936.84
2017-04-04T06:11:03.819Z,101933.81
2017-04-04T06:12:02.331Z,101939.91
2017-04-04T06:13:00.828Z,101941.26
2017-04-04T06:13:59.372Z,101946.22
2017-04-04T06:14:57.939Z,101937.70
2017-04-04T06:15:56.446Z,101946.97
2017-04-04T06:16:54.959Z,101938.56
2017-04-04T06:17:53.490Z,101946.64
2017-04-04T06:18:52.054Z,101946.02
2017-04-04T06:19:50.619Z,101937.53
2017-04-04T06:20:49.346Z,101938.36
2017-04-04T06:21:47.934Z,101950.77
2017-04-04T06:22:46.463Z,101944.83
2017-04-04T06:23:45.119Z,101949.20
2017-04-04T06:24:43.701Z,101945.76
2017-04-04T06:25:42.224Z,101946.55
2017-04-04T06:26:40.864Z,101951.58
2017-04-04T06:27:39.378Z,101947.66
2017-04-04T06:28:38.361Z,101951.72
2017-04-04T06:29:37.003Z,101948.19
2017-04-04T06:30:35.494Z,101950.80
2017-04-04T06:31:34.080Z,101947.44
2017-04-04T06:32:32.597Z,101943.28
2017-04-04T06:33:31.108Z,101954.20
2017-04-04T06:34:29.618Z,101955.16
2017-04-04T06:35:28.166Z,101948.77
2017-04-04T06:36:26.732Z,101950.71
2017-04-04T06:37:25.274Z,101954.61
2017-04-04T06:38:23.834Z,101956.36
2017-04-04T06:39:22.336Z,101956.22
2017-04-04T06:40:20.861Z,101951.55
2017-04-04T06:41:19.415Z,101948.52
2017-04-04T06:42:18.139Z,101945.09
2017-04-04T06:43:16.722Z,101944.73
2017-04-04T06:44:15.347Z,101945.36
2017-04-04T06:45:13.939Z,101947.09
2017-04-04T06:46:12.453Z,101950.53
2017-04-04T06:47:10.967Z,101950.77
2017-04-04T06:48:09.558Z,101942.14
2017-04-04T06:49:08.107Z,101950.48
2017-04-04T06:50:06.812Z,101946.13
2017-04-04T06:51:05.406Z,101946.24
2017-04-04T06:52:04.051Z,101948.00
2017-04-04T06:53:02.706Z,101941.09
2017-04-04T06:54:01.235Z,101937.08
2017-04-04T06:54:59.770Z,101938.91
2017-04-04T06:55:58.291Z,101936.12
2017-04-04T06:56:56.818Z,101936.20
2017-04-04T06:57:55.430Z,101942.13
2017-04-04T06:58:53.923Z,101941.16
2017-04-04T06:59:52.471Z,101940.05
2017-04-04T07:00:50.991Z,101944.79
2017-04-04T07:01:49.813Z,101942.16
2017-04-04T07:02:49.167Z,101937.30
2017-04-04T07:03:48.286Z,101942.53
2017-04-04T07:04:47.168Z,101942.91
2017-04-04T07:05:45.783Z,101941.53
2017-04-04T07:06:44.271Z,101940.31
2017-04-04T07:07:42.843Z,101937.30
2017-04-04T07:08:41.366Z,101934.02
2017-04-04T07:09:39.913Z,101942.23
2017-04-04T07:10:38.435Z,101941.84
2017-04-04T07:11:36.964Z,101941.20
2017-04-04T07:12:35.476Z,101939.28
2017-04-04T07:13:34.225Z,101941.84
2017-04-04T07:14:32.800Z,101940.04
2017-04-04T07:15:31.595Z,101943.97
2017-04-04T07:16:30.166Z,101939.34
2017-04-04T07:17:28.651Z,101937.32
2017-04-04T07:18:27.231Z,101944.89
2017-04-04T07:19:25.783Z,101945.08
2017-04-04T07:20:24.918Z,101942.93
2017-04-04T07:21:23.475Z,101939.14
2017-04-04T07:22:22.043Z,101938.76
2017-04-04T07:23:20.603Z,101943.00
2017-04-04T07:24:19.363Z,101946.42
2017-04-04T07:25:18.051Z,101941.83
2017-04-04T07:26:16.692Z,101945.09
2017-04-04T07:27:15.325Z,101942.24
2017-04-04T07:28:13.911Z,101944.11
2017-04-04T07:29:12.552Z,101942.73
2017-04-04T07:30:11.139Z,101940.88
2017-04-04T07:31:09.624Z,101938.99
2017-04-04T07:32:08.183Z,101941.87
2017-04-04T07:33:07.303Z,101936.38
2017-04-04T07:34:05.873Z,101936.73
2017-04-04T07:35:04.443Z,101937.35
2017-04-04T07:36:02.947Z,101935.70
2017-04-04T07:37:01.503Z,101936.27
2017-04-04T07:38:00.041Z,101939.02
2017-04-04T07:38:58.603Z,101938.66
2017-04-04T07:39:57.219Z,101939.43
2017-04-04T07:40:55.828Z,101937.25
2017-04-04T07:41:54.359Z,101937.89
2017-04-04T07:42:52.917Z,101941.92
2017-04-04T07:43:51.466Z,101943.59
2017-04-04T07:44:49.993Z,101946.85
2017-04-04T07:45:48.519Z,101944.37
2017-04-04T07:46:47.156Z,101948.02
2017-04-04T07:47:45.687Z,101943.31
2017-04-04T07:48:44.211Z,101948.20
2017-04-04T07:49:42.811Z,101940.91
2017-04-04T07:50:41.323Z,101945.87
2017-04-04T07:51:39.831Z,101944.57
2017-04-04T07:52:38.328Z,101942.91
2017-04-04T07:53:36.967Z,101948.03
2017-04-04T07:54:35.531Z,101943.42
2017-04-04T07:55:34.109Z,101945.59
2017-04-04T07:56:32.655Z,101941.52
2017-04-04T07:57:31.261Z,101944.58
2017-04-04T07:58:29.815Z,101947.14
2017-04-04T07:59:28.342Z,101938.66
2017-04-04T08:00:26.956Z,101942.57
2017-04-04T08:01:25.527Z,101938.52
2017-04-04T08:02:24.098Z,101940.10
2017-04-04T08:03:22.791Z,101939.24
2017-04-04T08:04:21.395Z,101947.45
2017-04-04T08:05:19.947Z,101940.98
2017-04-04T08:06:18.458Z,101946.13
2017-04-04T08:07:17.004Z,101941.54
2017-04-04T08:08:15.546Z,101944.70
2017-04-04T08:09:14.138Z,101942.28
2017-04-04T08:10:12.680Z,101943.75
2017-04-04T08:11:11.200Z,101938.86
2017-04-04T08:12:09.700Z,101941.93
2017-04-04T08:13:08.199Z,101942.53
2017-04-04T08:14:06.720Z,101936.24
2017-04-04T08:15:05.316Z,101935.83
2017-04-04T08:16:03.831Z,101936.06
2017-04-04T08:17:02.368Z,101940.35
2017-04-04T08:18:00.918Z,101937.78
2017-04-04T08:18:59.431Z,101937.67
2017-04-04T08:19:58.012Z,101940.59
2017-04-04T08:20:56.523Z,101938.71
2017-04-04T08:21:55.020Z,101946.70
2017-04-04T08:22:53.543Z,101945.15
2017-04-04T08:23:52.051Z,101947.77
2017-04-04T08:24:50.619Z,101938.64
2017-04-04T08:25:49.143Z,101943.88
2017-04-04T08:26:47.783Z,101945.90
2017-04-04T08:27:46.419Z,101945.28
2017-04-04T08:28:45.072Z,101943.34
2017-04-04T08:29:43.682Z,101946.13
2017-04-04T08:30:42.327Z,101942.16
2017-04-04T08:31:40.912Z,101935.62
2017-04-04T08:32:39.447Z,101937.75
2017-04-04T08:33:37.903Z,101942.94
2017-04-04T08:34:36.431Z,101942.36
2017-04-04T08:35:34.985Z,101946.48
2017-04-04T08:36:33.483Z,101944.80
2017-04-04T08:37:31.991Z,101947.83
2017-04-04T08:38:30.531Z,101948.80
2017-04-04T08:39:29.062Z,101945.64
2017-04-04T08:40:27.660Z,101947.53
2017-04-04T08:41:26.264Z,101945.13
2017-04-04T08:42:24.859Z,101944.69
2017-04-04T08:43:23.371Z,101946.66
2017-04-04T08:44:21.896Z,101945.94
2017-04-04T08:45:20.434Z,101949.38
2017-04-04T08:46:18.939Z,101953.19
2017-04-04T08:47:17.459Z,101951.98
2017-04-04T08:48:16.100Z,101949.72
2017-04-04T08:49:14.717Z,101946.77
2017-04-04T08:50:13.324Z,101951.45
2017-04-04T08:51:11.953Z,101941.73
2017-04-04T08:52:10.579Z,101948.31
2017-04-04T08:53:09.486Z,101945.18
2017-04-04T08:54:08.071Z,101949.55
2017-04-04T08:55:06.577Z,101946.84
2017-04-04T08:56:05.196Z,101943.81
2017-04-04T08:57:03.812Z,101949.31
2017-04-04T08:58:02.415Z,101948.48
2017-04-04T08:59:01.080Z,101948.77
2017-04-04T08:59:59.758Z,101949.70
2017-04-04T09:00:58.261Z,101947.23
2017-04-04T09:01:56.819Z,101948.20
2017-04-04T09:02:55.363Z,101949.65
2017-04-04T09:03:53.911Z,101951.03
2017-04-04T09:04:52.380Z,101950.42
2017-04-04T09:05:50.891Z,101946.68
2017-04-04T09:06:49.416Z,101948.28
2017-04-04T09:07:47.994Z,101947.44
2017-04-04T09:08:46.538Z,101948.23
2017-04-04T09:09:45.068Z,101950.17
2017-04-04T09:10:43.630Z,101950.35
2017-04-04T09:11:42.111Z,101949.94
2017-04-04T09:12:40.603Z,101952.50
2017-04-04T09:13:39.102Z,101951.95
2017-04-04T09:14:37.604Z,101949.53
2017-04-04T09:15:36.155Z,101949.63
2017-04-04T09:16:34.695Z,101948.08
2017-04-04T09:17:33.205Z,101946.95
2017-04-04T09:18:31.736Z,101949.14
2017-04-04T09:19:30.239Z,101949.20
2017-04-04T09:20:28.952Z,101949.78
2017-04-04T09:21:27.475Z,101951.89
2017-04-04T09:22:25.980Z,101943.33
2017-04-04T09:23:24.487Z,101941.39
2017-04-04T09:24:23.059Z,101949.80
2017-04-04T09:25:21.695Z,101949.64
2017-04-04T09:26:20.271Z,101944.09
2017-04-04T09:27:18.852Z,101938.36
2017-04-04T09:28:17.471Z,101940.79
2017-04-04T09:29:16.232Z,101941.03
2017-04-04T09:30:14.830Z,101934.24
2017-04-04T09:31:13.410Z,101934.77
2017-04-04T09:32:11.966Z,101933.30
2017-04-04T09:33:10.451Z,101936.61
2017-04-04T09:34:09.019Z,101939.98
2017-04-04T09:35:07.593Z,101933.39
2017-04-04T09:36:06.147Z,101938.27
2017-04-04T09:37:04.712Z,101936.17
2017-04-04T09:38:03.282Z,101936.53
2017-04-04T09:39:01.800Z,101934.63
2017-04-04T09:40:00.322Z,101937.09
2017-04-04T09:40:58.860Z,101936.27
2017-04-04T09:41:57.365Z,101937.48
2017-04-04T09:42:55.850Z,101927.44
2017-04-04T09:43:54.364Z,101931.16
2017-04-04T09:44:52.879Z,101926.70
2017-04-04T09:45:51.375Z,101929.23
2017-04-04T09:46:49.992Z,101925.55
2017-04-04T09:47:48.527Z,101925.26
2017-04-04T09:48:47.019Z,101931.42
2017-04-04T09:49:45.608Z,101931.37
2017-04-04T09:50:44.198Z,101925.58
2017-04-04T09:51:42.699Z,101922.28
2017-04-04T09:52:41.241Z,101917.59
2017-04-04T09:53:39.836Z,101924.02
2017-04-04T09:54:38.343Z,101925.78
2017-04-04T09:55:36.895Z,101920.84
2017-04-04T09:56:35.410Z,101922.91
2017-04-04T09:57:33.964Z,101923.55
2017-04-04T09:58:32.580Z,101922.34
2017-04-04T09:59:31.108Z,101922.88
2017-04-04T10:00:29.657Z,101922.52
2017-04-04T10:01:28.191Z,101925.01
2017-04-04T10:02:26.741Z,101923.02
2017-04-04T10:03:25.279Z,101927.48
2017-04-04T10:04:23.787Z,101925.77
2017-04-04T10:05:22.343Z,101926.42
2017-04-04T10:06:20.839Z,101924.86
2017-04-04T10:07:19.463Z,101927.44
2017-04-04T10:08:18.015Z,101926.91
2017-04-04T10:09:16.723Z,101927.86
2017-04-04T10:10:15.332Z,101919.72
2017-04-04T10:11:14.011Z,101920.11
2017-04-04T10:12:12.684Z,101922.41
2017-04-04T10:13:11.307Z,101921.75
2017-04-04T10:14:10.231Z,101916.74
2017-04-04T10:15:08.794Z,101917.91
2017-04-04T10:16:07.334Z,101910.20
2017-04-04T10:17:05.920Z,101914.47
2017-04-04T10:18:04.582Z,101918.02
2017-04-04T10:19:03.140Z,101909.42
2017-04-04T10:20:01.711Z,101911.94
2017-04-04T10:21:00.236Z,101910.87
2017-04-04T10:21:58.823Z,101910.95
2017-04-04T10:22:57.343Z,101906.86
2017-04-04T10:23:55.864Z,101913.22
2017-04-04T10:24:54.475Z,101908.16
2017-04-04T10:25:53.141Z,101908.32
2017-04-04T10:26:51.640Z,101915.06
2017-04-04T10:27:50.147Z,101905.36
2017-04-04T10:28:48.687Z,101908.04
2017-04-04T10:29:47.307Z,101909.27
2017-04-04T10:30:45.860Z,101910.01
2017-04-04T10:31:44.451Z,101904.86
2017-04-04T10:32:43.163Z,101904.97
2017-04-04T10:33:41.770Z,101907.71
2017-04-04T10:34:40.356Z,101905.94
2017-04-04T10:35:38.862Z,101911.45
2017-04-04T10:36:37.419Z,101913.78
2017-04-04T10:37:35.928Z,101912.31
2017-04-04T10:38:34.467Z,101910.14
2017-04-04T10:39:33.004Z,101916.27
2017-04-04T10:40:31.563Z,101916.12
2017-04-04T10:41:30.078Z,101914.35
2017-04-04T10:42:28.578Z,101913.13
2017-04-04T10:43:27.195Z,101914.09
2017-04-04T10:44:25.795Z,101910.02
2017-04-04T10:45:24.453Z,101916.66
2017-04-04T10:46:23.265Z,101913.24
2017-04-04T10:47:21.825Z,101911.84
2017-04-04T10:48:20.356Z,101909.47
2017-04-04T10:49:18.972Z,101907.95
2017-04-04T10:50:17.506Z,101906.11
2017-04-04T10:51:16.034Z,101905.84
2017-04-04T10:52:14.568Z,101909.41
2017-04-04T10:53:13.091Z,101910.41
2017-04-04T10:54:11.635Z,101908.47
2017-04-04T10:55:10.196Z,101907.18
2017-04-04T10:56:08.772Z,101903.14
2017-04-04T10:57:07.359Z,101905.09
2017-04-04T10:58:06.066Z,101903.73
2017-04-04T10:59:04.670Z,101901.63
2017-04-04T11:00:03.175Z,101900.58
2017-04-04T11:01:01.819Z,101904.62
2017-04-04T11:02:00.520Z,101903.12
2017-04-04T11:02:59.076Z,101902.88
2017-04-04T11:03:57.663Z,101904.53
2017-04-04T11:04:56.189Z,101895.03
2017-04-04T11:05:54.739Z,101895.03
2017-04-04T11:06:53.408Z,101894.43
2017-04-04T11:07:51.990Z,101888.75